Skip Navigation Links Skip Navigation Links

Current Weather

Greater Rockford, Rockford, Ill.

For information only: do not use for flight planning or navigation.
Latest weather
Observation time Thursday, November 21, 2019 3:54 PM CST
Local time Thursday, November 21, 2019 4:28 PM CST
Flight conditions Marginal Visual Meteorological Conditions
Winds
Wind direction West-Northwest (290°)
Wind speed 22 mph
Wind gusting to 32 mph
Peak wind speed 36 mph, 3:25 PM
Peak wind direction West-Northwest (290°)
Visibility 10 mi.
Sky condition
Ceiling 1,800 ft. broken clouds
Cloud layer broken clouds 1,800 ft.
Cloud layer overcast 2,300 ft.
Temperature 46°F
Dewpoint 40°F
Altimeter 29.84 in.Hg
Derived measurements
Relative humidity 79%
Wind chill 38°F
Density altitude 94 ft.
Sea-level pressure 29.85 in.Hg
Remarks
Automated weather observing station with precipitation discriminator.
METAR KRFD 212154Z 29019G28KT 10SM BKN018 OVC023 08/04 A2984 RMK AO2 PK WND 29031/2125 SLP107 T00780044

Settings

Location code

InnerDrive.Weather 4.0.6770.0 Release CLR 4.0.30319.42000
Copyright ©2018 Inner Drive Technology. All rights reserved. Portions Copyright ©1986-2018 David Braverman.

Find weather

Site navigation


Skip Navigation Links

Place info

Page info

PayPal - The safer, easier way to pay online!

Return home.

Copyright ©2019 Inner Drive Technology. Purveyors of fine, hand-crafted computer software. Page printed 2019-11-21T22:28:28 UTC.